Guest
แชร์ หัวข้อ โพสต์โดย อ่าน ตอบ โพสต์ล่าสุด
xtreme3323 22 0 22/12/2018 15:48:05
iP2hands 38 1 22/12/2018 15:36:14
Nantawanlim 89 1 22/12/2018 15:13:41
ขออนุญาตเฮียครับ # ((สะสม หายาก)) Nokia E63 จอสี มีกล้อง มีไวไฟ
xtreme3323 16 0 22/12/2018 13:28:10
Zeng 47 0 22/12/2018 10:57:50
lekk67 36 0 22/12/2018 10:03:53
GALAX GTX 1060 OC 6GB ราคา4000 ไม่ลดแล้วนะครับ
ninjaboy 38 4 22/12/2018 06:53:34
cycy 14 0 21/12/2018 23:39:43
Sompob32 200 85 21/12/2018 21:31:15
xtreme3323 26 0 21/12/2018 20:57:32
iP2hands 47 1 21/12/2018 18:24:17
ขออนุญาตเฮียครับ # ((อย่าช้านะ)) IPOD TOUCH GEN4 32GB ดำ
xtreme3323 9 0 21/12/2018 18:20:14
iP2hands 30 1 21/12/2018 17:35:33
ขออนุญาตเฮียครับ # ((อย่าช้านะ)) IPOD VDO GEN5.5 30GB สีดำ
xtreme3323 39 0 21/12/2018 16:23:21
Jusminey 26 0 21/12/2018 16:18:15
ขายลำโพง Technics รุ่น SB-2110 ครับ
mawin 80 3 21/12/2018 16:04:34
xtreme3323 18 0 21/12/2018 15:28:20
iP2hands 46 1 21/12/2018 15:08:08
Inyalit 53 1 21/12/2018 15:04:50
iP2hands 28 1 21/12/2018 14:25:10
ขายเหมาอุปกรณ์ไอโฟน ไอพอด shuffle
nppisut 51 1 21/12/2018 12:13:46
Wintutor 86 6 21/12/2018 12:07:31
นาฬิกา Casio Triple Sensor รุ่น 3439 SGW-1000 ขายในราคาเหมือนแจก
Wintutor 2 0 21/12/2018 11:42:12
กระเป๋ากล้อง THULE COVERT CSC SLING
Zeng 121 6 21/12/2018 11:19:29
xtreme3323 22 0 21/12/2018 10:03:54
Mosktk 40 0 21/12/2018 09:25:37
ขายสายลำโพง CHOSEAL
mawin 42 3 20/12/2018 23:05:13
ขออนุญาตเฮียครับ # ((จัดเลย)) MP3 Sony Walkman NWZ-E436F 4GB
xtreme3323 40 0 20/12/2018 21:35:43
+++ กระเป๋า +++ TUMI / COACH / PAUL SMITH / MANDARINA DUCK / NOMADIC'S / DIESEL / LANDO RODE / BEAM / แจ็คเก็ต POLO RL
ball0910400 165 15 20/12/2018 20:49:29
xtreme3323 28 0 20/12/2018 20:20:42
ขายนาฬิกา Withings Stell HR smart watch สภาพดีใช้ได้ ขายในราคาเหมือนแจกกันเลย
Wintutor 18 5 20/12/2018 19:42:02
ขาย Vivo V11i สี Starry Night ของใหม่ ไม่ผ่านการใช้งาน ราคาถูกกว่าศูนย์
a108 61 6 20/12/2018 16:55:55
Bose Companion 3
hata_ 470 16 20/12/2018 16:42:11
xtreme3323 33 0 20/12/2018 15:31:14
จรัส อ้นสว่าง 66 0 20/12/2018 15:30:14
jordjear 295 3 20/12/2018 14:35:07
ขออนุญาตเฮียครับ # ((จัดเลยครับ)) IPOD TOUCH GEN4 32GB ดำ
xtreme3323 26 0 20/12/2018 14:19:53
ratchada_ocean 197 84 20/12/2018 14:02:13
ratchada_ocean 186 71 20/12/2018 12:38:49
xtreme3323 25 0 20/12/2018 11:51:20
xtreme3323 42 0 20/12/2018 11:14:10
ขออนุญาตเฮียครับ # ((จุเยอะนะ)) IPOD TOUCH GEN3 64GB
xtreme3323 7 0 20/12/2018 10:31:16
papk28 54 0 20/12/2018 09:30:54
[ขาย] Fitbit Blaze size L (สีดำ) ส่งต่อมือสอง 3000฿
Paraguide 82 2 20/12/2018 09:02:19
nsukgan 130 0 20/12/2018 00:23:39
พันเเสง 52 0 19/12/2018 23:24:22
No24 182 9 19/12/2018 22:50:11
เปียพร 97 2 19/12/2018 22:04:46
ขาย ลำโพง harman kardon onyx 4 ยังไม่ได้แกะราคา 4450 บาท
puyzabra 12 0 19/12/2018 20:39:22
Kawpadmoo 97 2 19/12/2018 17:45:58
Vintage Apple iPod Classic 4th B&W VS Vintage Apple iPod classic 6th Generation
ATM 246 17 19/12/2018 17:13:03
ขาย โน๊ตบุ๊ค Dell Inspiron 5559 สีขาว Core i5 Gen6/4GB/500GB/AMD M335 2GB
a108 79 11 19/12/2018 16:54:52
Kim1980 56 3 19/12/2018 15:46:13
iP2hands 43 1 19/12/2018 13:24:02
Kingconvoy 132 5 19/12/2018 13:05:06
ขออนุญาตเฮียครับ # ((ปุ่มกด ใช้ง่าย)) Nokia 1800 จอสี มีไฟฉาย
xtreme3323 23 0 19/12/2018 12:32:11
iP2hands 58 1 19/12/2018 12:07:37
xtreme3323 17 0 19/12/2018 12:01:09
ขาย Toshiba REGZA LCD TV (32 inch) หรือ Toshiba 49L365* (49 inch)
เล็กจัง 51 0 19/12/2018 11:37:55
setsunai 1,378 7 19/12/2018 09:43:04
Yaa 86 2 19/12/2018 09:14:37
Yaa 36 2 19/12/2018 09:14:10
การ์ดจอ POWER COLOR R9 380 PCS+ 4G DDR5 ราคา 3000 ไม่ลดแล้วนะครับ
ninjaboy 187 13 19/12/2018 06:04:36
GALAX GTX 1060 OC 6GB ราคา4500 ไม่ลดแล้วนะครับ
ninjaboy 179 18 19/12/2018 06:04:24
Inno3D GeForce GTX 1070 X2 8GB ราคา7000 ไม่ลดแล้วนะครับ
ninjaboy 134 15 19/12/2018 06:03:55
Asus ZenPad C 7.0 (Z170CG) P01Y แท็ปเล็ตจอ7นิ้วโทรได้2ซิม ราคา2500 ไม่ลดแล้วได้นะครับ
ninjaboy 537 59 19/12/2018 06:03:48
BeePrapapan 86 1 18/12/2018 22:13:33
xtreme3323 40 0 18/12/2018 21:42:24
ขออนุญาตเฮียครับ # ((สะสม หายาก)) IPHONE 3GS 16GB ขาว
xtreme3323 14 0 18/12/2018 21:12:38
iP2hands 52 1 18/12/2018 18:39:33
iP2hands 40 0 18/12/2018 18:35:57
+++ กระเป๋า +++ TUMI / PORTER / COACH / MANDARINA DUCK / SAMSONITE / NOMADIC'S / DIESEL / MASTERPIECE / LAMBORGHINI ฯลฯ
ball0910400 197 19 18/12/2018 18:19:10
iP2hands 50 1 18/12/2018 17:08:00
TT 130 4 18/12/2018 15:56:12
ขออนุญาตเฮียครับ # ((อย่าคิดนาน)) IPOD SHUFFLE GEN4 2GB สีดำ
xtreme3323 22 0 18/12/2018 15:33:00
thaiecenter 128 0 18/12/2018 15:23:32
ขออนุญาตเฮียครับ # ((จัดเลยครับ)) Nokia E63 จอสี มีกล้อง มีไวไฟ
xtreme3323 11 0 18/12/2018 14:40:13
iP2hands 30 1 18/12/2018 14:27:04
iP2hands 41 1 18/12/2018 13:53:41
iP2hands 41 1 18/12/2018 13:24:57
iP2hands 39 1 18/12/2018 12:27:24
boyvinai 91 5 18/12/2018 11:13:20
ขาย Samsung Galaxy S8+ 64GB Midnight black เครื่องสวย ครบกล่อง
a108 195 19 18/12/2018 09:08:17
[FS]ขายของ 2 รายการคร้าบบบ ^___^
Mr.benz 86 2 18/12/2018 09:06:44
Mosktk 79 1 18/12/2018 01:34:04
Jusminey 23 0 18/12/2018 00:09:12
ขออนุญาตเฮียครับ # ((สะสม หายาก)) MP3 Player samsung yp-k3 / 1-2gb เหมาๆ
xtreme3323 13 0 17/12/2018 21:10:24
Knives Nice 52 1 17/12/2018 20:56:18
ขออนุญาตขาย BENJIE K8 เครื่องเล่นเพลงพกพารองรับไฟล์ lossless บันทึกเสียง มีวิทยุ บลูทูธ
SoPLkwHiFi 75 2 17/12/2018 20:41:36
ฟิส 80 1 17/12/2018 20:37:55
xtreme3323 18 0 17/12/2018 20:28:44
Kingconvoy 72 5 17/12/2018 20:01:46
NoM!NeE 61 5 17/12/2018 19:38:59
ขออนุญาตเฮียครับ # ((จัดไปครับ)) IPOD VDO GEN5.5 30GB ดำ
xtreme3323 31 0 17/12/2018 18:26:16
ขาย Notbook HP 14-am001tu /Pentium N3710/4GB/ เครื่องสวย สภาพ 99%
a108 45 8 17/12/2018 17:55:52
pninewei 98 2 17/12/2018 17:13:20
ขออนุญาตเฮียครับ # ((สะสม หายาก)) Nokia N72 จอสี มีกล้อง
xtreme3323 30 0 17/12/2018 16:32:56
ขออนุญาตเฮียครับ # ((งานอะไหล่)) IPOD TOUCH GEN2 8GB ดำ
xtreme3323 8 0 17/12/2018 14:54:34
Ban Nai Pru 42 0 17/12/2018 12:52:57
stardiwari 973 26 17/12/2018 12:41:26
ขาย กล้องวีดีโอ Sony Handycam DCR-SX65E 70X Zoom/Carl Zeiss Lens จอสัมผัส
a108 96 11 17/12/2018 12:37:03
ของมือหนึ่งนะคร... 82 3 17/12/2018 12:27:41
Kong 97 0 17/12/2018 11:03:33
ขออนุญาตเฮียครับ # ((ปั้นได้ จัดเลย คุ้ม)) IPAD 1 wifi 32GB
xtreme3323 25 0 17/12/2018 10:57:33
mm88warp.com 22 0 17/12/2018 10:18:22
cloud7172 45 1 17/12/2018 09:04:34
ขายลำโพงสองคู่ aurex[toshiba] กับ pioneer
mawin 63 4 16/12/2018 23:04:39
Hopegood 189 3 16/12/2018 22:46:15
ขออนุญาตเฮียครับ # ((จัดเลย)) IPOD SHUFFLE GEN4 2GB สีม่วง
xtreme3323 29 0 16/12/2018 21:44:52
ขายเครื่องฟอกอากาศในรถยนต์ Shap Plasmacluster
cvorachat 71 1 16/12/2018 21:40:44
ขออนุญาตเฮียครับ # ((จัดไป)) เครื่องอัดเสียงดิจิตอล Sony icd-ux71f 1GB
xtreme3323 21 0 16/12/2018 20:35:20
ขออนุญาตเฮียครับ # ((โล๊ะๆ กันไป)) เครื่องอัดเสียงดิจิตอล Sony ICD-P330F
xtreme3323 25 0 16/12/2018 16:09:57
ขออนุญาตเฮียครับ # ((ขายขำขำ จัดไป)) IPOD TOUCH GEN4 ความจุ 8GB ขาว
xtreme3323 31 0 16/12/2018 15:36:13
Mosktk 149 7 16/12/2018 15:22:30
thaiecenter 81 1 16/12/2018 15:10:53
ขายถูกๆ iPhone 8 Plus 64GB สีดำ อุปกรณ์แท้ครบยกกล่อง มือสอง สภาพสวย ใช้งานปกติ ราคาพิเศษ
vickend 38 1 16/12/2018 10:35:50
BIGMINI 171 4 16/12/2018 08:39:52
BIGMINI 251 3 16/12/2018 08:39:27
การ์ดจอ ASUS STRIX GTX 1060 6G ราคา 4500 ไม่ลดแล้วนะครับ
ninjaboy 84 10 16/12/2018 08:30:46
คอมพิวเตอร์ตั้งโต๊ะขนาดเล็ก MINI-PC เล็กกระทัดรัด แต่เร็วและแรง ราคา10,000บาท ไม่ลดแล้วนะครับ
ninjaboy 85 5 16/12/2018 08:29:14
Jusminey 34 0 15/12/2018 22:37:53
xtreme3323 36 0 15/12/2018 20:16:03
Kingconvoy 85 4 15/12/2018 17:43:00
duck245 65 0 15/12/2018 16:59:19
DELL lnspiron 5567 15.6 FHD/Core i5 Gen7/HDD2TB ประกันNBD ปี2020 อายุ 3 เดือน
a108 72 11 15/12/2018 16:57:28
toto 176 4 15/12/2018 16:22:31
Knives Nice 575 13 15/12/2018 16:13:36
Yaa 85 5 15/12/2018 15:30:07
Yaa 61 6 15/12/2018 15:29:32
thaiecenter 38 0 15/12/2018 15:29:11
ลำโพง JBL Xtreme2 Bluetooth
thakool 23 0 15/12/2018 14:47:50
ขายเหมาแผ่นเสียง 12 แผ่น ในราคา 3,000 บาท
mawin 48 0 15/12/2018 13:07:18
ขออนุญาตเฮียครับ # ((นานๆมาที)) กล้อง ฟรุ้งฟริ้ง Casio ZR50 สีขาว
xtreme3323 8 0 15/12/2018 11:56:41
wat1234 273 3 15/12/2018 11:50:02
boyvinai 25 1 15/12/2018 11:35:20
lekk67 96 1 15/12/2018 11:15:34
ขายหูฟังเทพ Sony MDR-1000X bluetooth ตัดเสียงรบกวน สุดยอดแห่งหูฟัง
cvorachat 43 3 14/12/2018 22:25:29
อนุกุล บุตรพรม 17 0 14/12/2018 21:27:55
อนุกุล บุตรพรม 39 0 14/12/2018 21:27:09
อนุกุล บุตรพรม 18 0 14/12/2018 21:26:16
อนุกุล บุตรพรม 15 0 14/12/2018 21:24:59
อนุกุล บุตรพรม 14 0 14/12/2018 21:21:47
ขออนุญาตเฮียครับ # ((สะสม หายาก)) Mp3 creative muvo v200 1GB
xtreme3323 29 0 14/12/2018 20:09:33
xtreme3323 44 0 14/12/2018 18:00:48
Otomo 2,505 33 14/12/2018 16:25:37
ขออนุญาตเฮียครับ # ((อย่าคิดนานครับ)) IPOD CLASSIC GEN7 160GB
xtreme3323 48 0 14/12/2018 16:23:05
ขออณุญาติเฮียขายuag monarch 8 plus 7 plus 6s plus ส่งems/kerry ฟรี
duncan98 49 2 14/12/2018 15:44:59
xtreme3323 22 0 14/12/2018 15:17:25
ขายลำโพงสองคู่ yamaha กับ mirage
mawin 121 10 14/12/2018 15:13:46
อนุกุล บุตรพรม 26 0 14/12/2018 13:57:43
ขาย Asus Zenfone 4 Selfie Pro RAM4GB Rom 64GB เครื่องสวย มีประกัน ราคาไม่แรง
a108 126 19 14/12/2018 13:01:25
ขออนุญาตเฮียครับ # ((ยังดีนะ)) IPOD TOUCH GEN 4 8GB white
xtreme3323 25 0 14/12/2018 12:04:26
zidoo x10 114 1 14/12/2018 11:50:14
ขออนุญาตเฮียครับ # ((ปั้นได้ เอาไป)) IPOD NANO GEN4 8 GB silver
xtreme3323 10 0 14/12/2018 11:35:09
masao 182 5 14/12/2018 11:03:26
ball0910400 199 18 14/12/2018 10:54:25
eak5555 1,831 51 14/12/2018 10:13:13
iP2hands 61 1 14/12/2018 10:07:49
iP2hands 30 1 14/12/2018 09:42:54
MONG 298 109 14/12/2018 08:24:01
ccd 114 0 13/12/2018 22:15:15
ccd 116 0 13/12/2018 22:13:40
ccd 98 0 13/12/2018 22:11:50
ขออนุญาตเฮียครับ # ((อย่าช้า)) IPOD SHUFFLE GEN4 2GB ทอง
xtreme3323 27 0 13/12/2018 21:41:47
ขออนุญาตเฮียครับ # ((รีบๆนะ)) IPOD TOUCH GEN4 16GB ขาว
xtreme3323 26 0 13/12/2018 20:23:13
Kingconvoy 53 3 13/12/2018 19:57:23
iP2hands 34 1 13/12/2018 18:12:47
iP2hands 52 1 13/12/2018 17:40:10
iP2hands 33 1 13/12/2018 16:24:44
iP2hands 44 1 13/12/2018 15:46:07
ขออนุญาตเฮียครับ # ((สวยอยู่นะ)) IPOD SHUFFLE GEN4 2GB สีเงิน
xtreme3323 23 0 13/12/2018 15:42:25
ratchada_ocean 185 78 13/12/2018 15:10:01
ขออนุญาตเฮียครับ # ((งานอะไหล่)) Creative ZEN Vision: M media player
xtreme3323 15 0 13/12/2018 14:17:44
ขาย โน๊ตบุ๊ค Acer aspire E1-571G 15.6” Core i3/4GB/500GB/nVidia 1GB
a108 58 9 13/12/2018 14:02:41
ขออนุญาตเฮียครับ # ((อย่าคิดนาน)) IPOD TOUCH GEN4 32GB
xtreme3323 31 0 13/12/2018 12:12:52
New Samsung Series7 (2018) 49NU7100 ใหม่ยังไม่แกะกล่อง ราคาพิเศษ
pppp 31 0 13/12/2018 12:07:30
Mmmmm 76 3 13/12/2018 11:39:23
Eva 236 2 13/12/2018 11:19:31
kriss191 110 0 13/12/2018 11:19:28
ขออนุญาตเฮียครับ # ((สะสม หายาก)) Sony Walkman NWZ-B162F 2GB
xtreme3323 34 0 13/12/2018 11:12:53
ขายถูกๆ iPhone 8 Plus 64GB สีดำ อุปกรณ์แท้ครบยกกล่อง สภาพสวย ใช้งานปกติ ราคาพิเศษ
vickend 51 0 13/12/2018 09:28:46
ach 96 3 13/12/2018 03:09:06
iPhone6 64Gb เครื่องญี่ปุ่น ติดiCloud 2000฿
hata_ 37 6 12/12/2018 23:35:12
Sompob32 25 0 12/12/2018 23:14:25
ขออนุญาตเฮียครับ # ((แก้เป็น จัดเลย)) IPOD TOUCH GEN1 16GB
xtreme3323 16 0 12/12/2018 21:02:25
deaw842 513 19 12/12/2018 17:48:56
iP2hands 46 1 12/12/2018 17:32:07
Choun 114 2 12/12/2018 15:54:26
ขออนุญาตเฮียครับ # ((ยังสวย)) IPOD SHUFFLE GEN4 2GB สีดำ
xtreme3323 9 0 12/12/2018 14:37:50
surachai_pal 292 20 12/12/2018 12:34:12
iP2hands 29 1 12/12/2018 12:27:34
ขออนุญาตเฮียครับ # ((ขายเอามันส์)) IPOD TOUCH GEN2 32GB
xtreme3323 17 0 12/12/2018 12:27:14
Wanchat Chansri 32 0 12/12/2018 09:55:06
การ์ดจอตัวแรง POWER COLOR R9 380 PCS+ 4G DDR5 ราคา 3000 ไม่ลดแล้วนะครับ
ninjaboy 63 9 12/12/2018 06:06:25
inno3d geforce gtx 1060 3g พัดลมเดียว ราคา3900 ไม่ลดแล้วนะครับ
ninjaboy 60 7 12/12/2018 06:06:17
olarn 434 15 12/12/2018 02:10:22
ขาย AIS Pocket wifi
Lekkiki 338 24 11/12/2018 22:29:47
Knives Nice 232 8 11/12/2018 21:55:10
รัฐ 262 8 11/12/2018 21:42:45
Kingconvoy 36 3 11/12/2018 20:45:34
601 - 800 of 13,983 items : << 123456789 >>

ช่องทางการติดต่ออื่น

  • Munkonggadget
  • Munkonggadget Reviews
  • Munkonggadget Reviews
  • Munkonggadget Contact Us